sensor_id;sensor_type;location;lat;lon;timestamp;temperature;humidity
41058;DHT22;27499;48.884;2.258;2022-07-23T00:00:29;21.60;99.90
41058;DHT22;27499;48.884;2.258;2022-07-23T00:03:04;21.60;99.90
41058;DHT22;27499;48.884;2.258;2022-07-23T00:05:31;21.60;99.90
41058;DHT22;27499;48.884;2.258;2022-07-23T00:08:00;21.60;99.90
41058;DHT22;27499;48.884;2.258;2022-07-23T00:10:27;21.60;99.90
41058;DHT22;27499;48.884;2.258;2022-07-23T00:12:54;21.60;99.90
41058;DHT22;27499;48.884;2.258;2022-07-23T00:15:21;21.60;99.90
41058;DHT22;27499;48.884;2.258;2022-07-23T00:17:48;21.60;99.90
41058;DHT22;27499;48.884;2.258;2022-07-23T00:20:15;21.60;99.90
41058;DHT22;27499;48.884;2.258;2022-07-23T00:22:52;21.60;99.90
41058;DHT22;27499;48.884;2.258;2022-07-23T00:25:23;21.60;99.90
41058;DHT22;27499;48.884;2.258;2022-07-23T00:27:56;21.60;99.90
41058;DHT22;27499;48.884;2.258;2022-07-23T00:30:23;21.60;99.90
41058;DHT22;27499;48.884;2.258;2022-07-23T00:32:55;21.60;99.90
41058;DHT22;27499;48.884;2.258;2022-07-23T00:35:29;21.60;99.90
41058;DHT22;27499;48.884;2.258;2022-07-23T00:37:57;21.60;99.90
41058;DHT22;27499;48.884;2.258;2022-07-23T00:40:25;21.60;99.90
41058;DHT22;27499;48.884;2.258;2022-07-23T00:42:52;21.60;99.90
41058;DHT22;27499;48.884;2.258;2022-07-23T00:45:19;21.60;99.90
41058;DHT22;27499;48.884;2.258;2022-07-23T00:47:46;21.50;99.90
41058;DHT22;27499;48.884;2.258;2022-07-23T00:50:13;21.50;99.90
41058;DHT22;27499;48.884;2.258;2022-07-23T00:52:41;21.50;99.90
41058;DHT22;27499;48.884;2.258;2022-07-23T00:55:09;21.50;99.90
41058;DHT22;27499;48.884;2.258;2022-07-23T00:57:39;21.50;99.90
41058;DHT22;27499;48.884;2.258;2022-07-23T01:00:09;21.50;99.90
41058;DHT22;27499;48.884;2.258;2022-07-23T01:02:37;21.50;99.90
41058;DHT22;27499;48.884;2.258;2022-07-23T01:05:06;21.50;99.90
41058;DHT22;27499;48.884;2.258;2022-07-23T01:07:33;21.40;99.90
41058;DHT22;27499;48.884;2.258;2022-07-23T01:10:00;21.40;99.90
41058;DHT22;27499;48.884;2.258;2022-07-23T01:12:29;21.40;99.90
41058;DHT22;27499;48.884;2.258;2022-07-23T01:14:58;21.40;99.90
41058;DHT22;27499;48.884;2.258;2022-07-23T01:17:25;21.40;99.90
41058;DHT22;27499;48.884;2.258;2022-07-23T01:19:53;21.40;99.90
41058;DHT22;27499;48.884;2.258;2022-07-23T01:22:20;21.40;99.90
41058;DHT22;27499;48.884;2.258;2022-07-23T01:24:47;21.40;99.90
41058;DHT22;27499;48.884;2.258;2022-07-23T01:27:14;21.40;99.90
41058;DHT22;27499;48.884;2.258;2022-07-23T01:29:41;21.40;99.90
41058;DHT22;27499;48.884;2.258;2022-07-23T01:32:08;21.30;99.90
41058;DHT22;27499;48.884;2.258;2022-07-23T01:34:35;21.30;99.90
41058;DHT22;27499;48.884;2.258;2022-07-23T01:37:02;21.30;99.90
41058;DHT22;27499;48.884;2.258;2022-07-23T01:39:28;21.30;99.90
41058;DHT22;27499;48.884;2.258;2022-07-23T01:41:55;21.30;99.90
41058;DHT22;27499;48.884;2.258;2022-07-23T01:44:22;21.30;99.90
41058;DHT22;27499;48.884;2.258;2022-07-23T01:46:50;21.30;99.90
41058;DHT22;27499;48.884;2.258;2022-07-23T01:49:17;21.30;99.90
41058;DHT22;27499;48.884;2.258;2022-07-23T01:51:44;21.20;99.90
41058;DHT22;27499;48.884;2.258;2022-07-23T01:54:31;21.20;99.90
41058;DHT22;27499;48.884;2.258;2022-07-23T01:56:59;21.20;99.90
41058;DHT22;27499;48.884;2.258;2022-07-23T01:59:27;21.20;99.90
41058;DHT22;27499;48.884;2.258;2022-07-23T02:01:55;21.20;99.90
41058;DHT22;27499;48.884;2.258;2022-07-23T02:04:23;21.20;99.90
41058;DHT22;27499;48.884;2.258;2022-07-23T02:06:52;21.20;99.90
41058;DHT22;27499;48.884;2.258;2022-07-23T02:09:19;21.20;99.90
41058;DHT22;27499;48.884;2.258;2022-07-23T02:11:47;21.20;99.90
41058;DHT22;27499;48.884;2.258;2022-07-23T02:14:14;21.20;99.90
41058;DHT22;27499;48.884;2.258;2022-07-23T02:16:40;21.20;99.90
41058;DHT22;27499;48.884;2.258;2022-07-23T02:19:08;21.20;99.90
41058;DHT22;27499;48.884;2.258;2022-07-23T02:21:35;21.20;99.90
41058;DHT22;27499;48.884;2.258;2022-07-23T02:24:02;21.20;99.90
41058;DHT22;27499;48.884;2.258;2022-07-23T02:26:29;21.10;99.90
41058;DHT22;27499;48.884;2.258;2022-07-23T02:28:58;21.10;99.90
41058;DHT22;27499;48.884;2.258;2022-07-23T02:31:26;21.10;99.90
41058;DHT22;27499;48.884;2.258;2022-07-23T02:33:53;21.10;99.90
41058;DHT22;27499;48.884;2.258;2022-07-23T02:36:20;21.10;99.90
41058;DHT22;27499;48.884;2.258;2022-07-23T02:38:47;21.20;99.90
41058;DHT22;27499;48.884;2.258;2022-07-23T02:41:13;21.10;99.90
41058;DHT22;27499;48.884;2.258;2022-07-23T02:43:40;21.20;99.90
41058;DHT22;27499;48.884;2.258;2022-07-23T02:46:07;21.20;99.90
41058;DHT22;27499;48.884;2.258;2022-07-23T02:48:34;21.20;99.90
41058;DHT22;27499;48.884;2.258;2022-07-23T02:51:01;21.20;99.90
41058;DHT22;27499;48.884;2.258;2022-07-23T02:53:28;21.10;99.90
41058;DHT22;27499;48.884;2.258;2022-07-23T02:55:55;21.10;99.90
41058;DHT22;27499;48.884;2.258;2022-07-23T02:58:22;21.20;99.90
41058;DHT22;27499;48.884;2.258;2022-07-23T03:00:49;21.10;99.90
41058;DHT22;27499;48.884;2.258;2022-07-23T03:03:17;21.10;99.90
41058;DHT22;27499;48.884;2.258;2022-07-23T03:05:44;21.10;99.90
41058;DHT22;27499;48.884;2.258;2022-07-23T03:08:11;21.10;99.90
41058;DHT22;27499;48.884;2.258;2022-07-23T03:10:38;21.10;99.90
41058;DHT22;27499;48.884;2.258;2022-07-23T03:13:05;21.10;99.90
41058;DHT22;27499;48.884;2.258;2022-07-23T03:15:32;21.10;99.90
41058;DHT22;27499;48.884;2.258;2022-07-23T03:17:59;21.10;99.90
41058;DHT22;27499;48.884;2.258;2022-07-23T03:20:25;21.10;99.90
41058;DHT22;27499;48.884;2.258;2022-07-23T03:22:52;21.10;99.90
41058;DHT22;27499;48.884;2.258;2022-07-23T03:25:19;21.10;99.90
41058;DHT22;27499;48.884;2.258;2022-07-23T03:27:46;21.10;99.90
41058;DHT22;27499;48.884;2.258;2022-07-23T03:30:13;21.00;99.90
41058;DHT22;27499;48.884;2.258;2022-07-23T03:32:40;21.10;99.90
41058;DHT22;27499;48.884;2.258;2022-07-23T03:35:07;21.10;99.90
41058;DHT22;27499;48.884;2.258;2022-07-23T03:37:34;21.10;99.90
41058;DHT22;27499;48.884;2.258;2022-07-23T03:40:01;21.00;99.90
41058;DHT22;27499;48.884;2.258;2022-07-23T03:42:29;21.00;99.90
41058;DHT22;27499;48.884;2.258;2022-07-23T03:44:55;21.00;99.90
41058;DHT22;27499;48.884;2.258;2022-07-23T03:47:22;21.00;99.90
41058;DHT22;27499;48.884;2.258;2022-07-23T03:49:49;21.00;99.90
41058;DHT22;27499;48.884;2.258;2022-07-23T03:52:17;21.00;99.90
41058;DHT22;27499;48.884;2.258;2022-07-23T03:54:43;21.00;99.90
41058;DHT22;27499;48.884;2.258;2022-07-23T03:57:10;21.00;99.90
41058;DHT22;27499;48.884;2.258;2022-07-23T03:59:37;21.00;99.90
41058;DHT22;27499;48.884;2.258;2022-07-23T04:02:04;21.00;99.90
41058;DHT22;27499;48.884;2.258;2022-07-23T04:04:31;21.00;99.90
41058;DHT22;27499;48.884;2.258;2022-07-23T04:06:58;21.00;99.90
41058;DHT22;27499;48.884;2.258;2022-07-23T04:09:25;20.90;99.90
41058;DHT22;27499;48.884;2.258;2022-07-23T04:11:52;20.90;99.90
41058;DHT22;27499;48.884;2.258;2022-07-23T04:14:19;21.00;99.90
41058;DHT22;27499;48.884;2.258;2022-07-23T04:16:46;20.90;99.90
41058;DHT22;27499;48.884;2.258;2022-07-23T04:19:12;21.00;99.90
41058;DHT22;27499;48.884;2.258;2022-07-23T04:21:39;20.90;99.90
41058;DHT22;27499;48.884;2.258;2022-07-23T04:24:06;20.90;99.90
41058;DHT22;27499;48.884;2.258;2022-07-23T04:26:33;21.00;99.90
41058;DHT22;27499;48.884;2.258;2022-07-23T04:29:00;20.90;99.90
41058;DHT22;27499;48.884;2.258;2022-07-23T04:31:27;20.90;99.90
41058;DHT22;27499;48.884;2.258;2022-07-23T04:34:02;20.90;99.90
41058;DHT22;27499;48.884;2.258;2022-07-23T04:36:29;20.90;99.90
41058;DHT22;27499;48.884;2.258;2022-07-23T04:38:56;20.90;99.90
41058;DHT22;27499;48.884;2.258;2022-07-23T04:41:23;20.90;99.90
41058;DHT22;27499;48.884;2.258;2022-07-23T04:43:50;20.90;99.90
41058;DHT22;27499;48.884;2.258;2022-07-23T04:46:16;20.90;99.90
41058;DHT22;27499;48.884;2.258;2022-07-23T04:48:43;20.90;99.90
41058;DHT22;27499;48.884;2.258;2022-07-23T04:51:10;20.90;99.90
41058;DHT22;27499;48.884;2.258;2022-07-23T04:53:38;21.00;99.90
41058;DHT22;27499;48.884;2.258;2022-07-23T04:56:05;20.90;99.90
41058;DHT22;27499;48.884;2.258;2022-07-23T04:58:32;20.90;99.90
41058;DHT22;27499;48.884;2.258;2022-07-23T05:00:59;20.90;99.90
41058;DHT22;27499;48.884;2.258;2022-07-23T05:03:26;21.00;99.90
41058;DHT22;27499;48.884;2.258;2022-07-23T05:05:53;21.00;99.90
41058;DHT22;27499;48.884;2.258;2022-07-23T05:08:20;21.00;99.90
41058;DHT22;27499;48.884;2.258;2022-07-23T05:10:47;21.00;99.90
41058;DHT22;27499;48.884;2.258;2022-07-23T05:13:15;21.00;99.90
41058;DHT22;27499;48.884;2.258;2022-07-23T05:15:43;21.00;99.90
41058;DHT22;27499;48.884;2.258;2022-07-23T05:18:11;21.00;99.90
41058;DHT22;27499;48.884;2.258;2022-07-23T05:20:38;21.00;99.90
41058;DHT22;27499;48.884;2.258;2022-07-23T05:23:05;21.00;99.90
41058;DHT22;27499;48.884;2.258;2022-07-23T05:25:32;21.00;99.90
41058;DHT22;27499;48.884;2.258;2022-07-23T05:27:59;21.00;99.90
41058;DHT22;27499;48.884;2.258;2022-07-23T05:30:26;21.00;99.90
41058;DHT22;27499;48.884;2.258;2022-07-23T05:32:52;21.00;99.90
41058;DHT22;27499;48.884;2.258;2022-07-23T05:35:19;21.00;99.90
41058;DHT22;27499;48.884;2.258;2022-07-23T05:37:46;21.00;99.90
41058;DHT22;27499;48.884;2.258;2022-07-23T05:40:13;21.10;99.90
41058;DHT22;27499;48.884;2.258;2022-07-23T05:42:40;21.00;99.90
41058;DHT22;27499;48.884;2.258;2022-07-23T05:45:10;21.00;99.90
41058;DHT22;27499;48.884;2.258;2022-07-23T05:47:47;21.00;99.90
41058;DHT22;27499;48.884;2.258;2022-07-23T05:50:15;21.00;99.90
41058;DHT22;27499;48.884;2.258;2022-07-23T05:52:42;21.00;99.90
41058;DHT22;27499;48.884;2.258;2022-07-23T05:55:11;21.00;99.90
41058;DHT22;27499;48.884;2.258;2022-07-23T05:57:40;21.00;99.90
41058;DHT22;27499;48.884;2.258;2022-07-23T06:00:08;21.00;99.90
41058;DHT22;27499;48.884;2.258;2022-07-23T06:02:37;21.10;99.90
41058;DHT22;27499;48.884;2.258;2022-07-23T06:05:04;21.10;99.90
41058;DHT22;27499;48.884;2.258;2022-07-23T06:07:31;21.10;99.90
41058;DHT22;27499;48.884;2.258;2022-07-23T06:09:58;21.10;99.90
41058;DHT22;27499;48.884;2.258;2022-07-23T06:12:25;21.10;99.90
41058;DHT22;27499;48.884;2.258;2022-07-23T06:14:52;21.10;99.90
41058;DHT22;27499;48.884;2.258;2022-07-23T06:17:19;21.10;99.90
41058;DHT22;27499;48.884;2.258;2022-07-23T06:19:46;21.10;99.90
41058;DHT22;27499;48.884;2.258;2022-07-23T06:22:13;21.10;99.90
41058;DHT22;27499;48.884;2.258;2022-07-23T06:24:40;21.10;99.90
41058;DHT22;27499;48.884;2.258;2022-07-23T06:27:07;21.10;99.90
41058;DHT22;27499;48.884;2.258;2022-07-23T06:29:34;21.10;99.90
41058;DHT22;27499;48.884;2.258;2022-07-23T06:32:00;21.10;99.90
41058;DHT22;27499;48.884;2.258;2022-07-23T06:34:27;21.10;99.90
41058;DHT22;27499;48.884;2.258;2022-07-23T06:36:54;21.20;99.90
41058;DHT22;27499;48.884;2.258;2022-07-23T06:39:21;21.20;99.90
41058;DHT22;27499;48.884;2.258;2022-07-23T06:41:49;21.20;99.90
41058;DHT22;27499;48.884;2.258;2022-07-23T06:44:19;21.20;99.90
41058;DHT22;27499;48.884;2.258;2022-07-23T06:46:45;21.20;99.90
41058;DHT22;27499;48.884;2.258;2022-07-23T06:49:12;21.20;99.90
41058;DHT22;27499;48.884;2.258;2022-07-23T06:51:39;21.20;99.90
41058;DHT22;27499;48.884;2.258;2022-07-23T06:54:06;21.20;99.90
41058;DHT22;27499;48.884;2.258;2022-07-23T06:56:33;21.20;99.90
41058;DHT22;27499;48.884;2.258;2022-07-23T06:59:00;21.20;99.90
41058;DHT22;27499;48.884;2.258;2022-07-23T07:01:28;21.20;99.90
41058;DHT22;27499;48.884;2.258;2022-07-23T07:03:55;21.20;99.90
41058;DHT22;27499;48.884;2.258;2022-07-23T07:06:22;21.20;99.90
41058;DHT22;27499;48.884;2.258;2022-07-23T07:08:50;21.20;99.90
41058;DHT22;27499;48.884;2.258;2022-07-23T07:11:18;21.20;99.90
41058;DHT22;27499;48.884;2.258;2022-07-23T07:13:44;21.20;99.90
41058;DHT22;27499;48.884;2.258;2022-07-23T07:16:11;21.20;99.90
41058;DHT22;27499;48.884;2.258;2022-07-23T07:18:38;21.20;99.90
41058;DHT22;27499;48.884;2.258;2022-07-23T07:21:05;21.20;99.90
41058;DHT22;27499;48.884;2.258;2022-07-23T07:23:32;21.20;99.90
41058;DHT22;27499;48.884;2.258;2022-07-23T07:25:59;21.20;99.90
41058;DHT22;27499;48.884;2.258;2022-07-23T07:28:26;21.20;99.90
41058;DHT22;27499;48.884;2.258;2022-07-23T07:30:53;21.30;99.90
41058;DHT22;27499;48.884;2.258;2022-07-23T07:33:20;21.30;99.90
41058;DHT22;27499;48.884;2.258;2022-07-23T07:35:47;21.30;99.90
41058;DHT22;27499;48.884;2.258;2022-07-23T07:38:14;21.30;99.90
41058;DHT22;27499;48.884;2.258;2022-07-23T07:40:41;21.30;99.90
41058;DHT22;27499;48.884;2.258;2022-07-23T07:43:08;21.40;99.90
41058;DHT22;27499;48.884;2.258;2022-07-23T07:45:35;21.40;99.90
41058;DHT22;27499;48.884;2.258;2022-07-23T07:48:02;21.40;99.90
41058;DHT22;27499;48.884;2.258;2022-07-23T07:50:29;21.40;99.90
41058;DHT22;27499;48.884;2.258;2022-07-23T07:52:56;21.40;99.90
41058;DHT22;27499;48.884;2.258;2022-07-23T07:55:23;21.40;99.90
41058;DHT22;27499;48.884;2.258;2022-07-23T07:57:50;21.50;99.90
41058;DHT22;27499;48.884;2.258;2022-07-23T08:00:17;21.50;99.90
41058;DHT22;27499;48.884;2.258;2022-07-23T08:02:51;21.50;99.90
41058;DHT22;27499;48.884;2.258;2022-07-23T08:05:26;21.50;99.90
41058;DHT22;27499;48.884;2.258;2022-07-23T08:07:55;21.50;99.90
41058;DHT22;27499;48.884;2.258;2022-07-23T08:10:24;21.50;99.90
41058;DHT22;27499;48.884;2.258;2022-07-23T08:12:53;21.40;99.90
41058;DHT22;27499;48.884;2.258;2022-07-23T08:15:21;21.40;99.90
41058;DHT22;27499;48.884;2.258;2022-07-23T08:17:48;21.40;99.90
41058;DHT22;27499;48.884;2.258;2022-07-23T08:20:18;21.40;99.90
41058;DHT22;27499;48.884;2.258;2022-07-23T08:22:50;21.40;99.90
41058;DHT22;27499;48.884;2.258;2022-07-23T08:25:26;21.40;99.90
41058;DHT22;27499;48.884;2.258;2022-07-23T08:27:53;21.50;99.90
41058;DHT22;27499;48.884;2.258;2022-07-23T08:30:21;21.50;99.90
41058;DHT22;27499;48.884;2.258;2022-07-23T08:32:57;21.50;99.90
41058;DHT22;27499;48.884;2.258;2022-07-23T08:35:26;21.50;99.90
41058;DHT22;27499;48.884;2.258;2022-07-23T08:37:54;21.60;99.90
41058;DHT22;27499;48.884;2.258;2022-07-23T08:40:21;21.50;99.90
41058;DHT22;27499;48.884;2.258;2022-07-23T08:42:49;21.50;99.90
41058;DHT22;27499;48.884;2.258;2022-07-23T08:45:18;21.50;99.90
41058;DHT22;27499;48.884;2.258;2022-07-23T08:47:52;21.50;99.90
41058;DHT22;27499;48.884;2.258;2022-07-23T08:50:21;21.60;99.90
41058;DHT22;27499;48.884;2.258;2022-07-23T08:52:50;21.60;99.90
41058;DHT22;27499;48.884;2.258;2022-07-23T08:55:19;21.70;99.90
41058;DHT22;27499;48.884;2.258;2022-07-23T08:57:49;21.70;99.90
41058;DHT22;27499;48.884;2.258;2022-07-23T09:00:17;21.70;99.90
41058;DHT22;27499;48.884;2.258;2022-07-23T09:02:46;21.80;99.90
41058;DHT22;27499;48.884;2.258;2022-07-23T09:05:14;21.80;99.90
41058;DHT22;27499;48.884;2.258;2022-07-23T09:18:31;21.90;99.90
41058;DHT22;27499;48.884;2.258;2022-07-23T09:21:20;22.00;99.90
41058;DHT22;27499;48.884;2.258;2022-07-23T09:24:02;22.00;99.90
41058;DHT22;27499;48.884;2.258;2022-07-23T09:29:25;22.10;99.90
41058;DHT22;27499;48.884;2.258;2022-07-23T09:31:57;22.10;99.90
41058;DHT22;27499;48.884;2.258;2022-07-23T09:34:27;22.00;99.90
41058;DHT22;27499;48.884;2.258;2022-07-23T09:37:31;22.10;99.90
41058;DHT22;27499;48.884;2.258;2022-07-23T09:40:07;22.10;99.90
41058;DHT22;27499;48.884;2.258;2022-07-23T09:42:34;22.10;99.90
41058;DHT22;27499;48.884;2.258;2022-07-23T09:45:02;22.20;99.90
41058;DHT22;27499;48.884;2.258;2022-07-23T09:47:30;22.20;99.90
41058;DHT22;27499;48.884;2.258;2022-07-23T09:50:09;22.30;99.90
41058;DHT22;27499;48.884;2.258;2022-07-23T09:52:48;22.30;99.90
41058;DHT22;27499;48.884;2.258;2022-07-23T09:55:17;22.40;99.90
41058;DHT22;27499;48.884;2.258;2022-07-23T09:57:45;22.50;99.90
41058;DHT22;27499;48.884;2.258;2022-07-23T10:00:14;22.50;99.90
41058;DHT22;27499;48.884;2.258;2022-07-23T10:02:41;22.60;99.90
41058;DHT22;27499;48.884;2.258;2022-07-23T10:05:08;22.60;99.90
41058;DHT22;27499;48.884;2.258;2022-07-23T10:07:39;22.80;99.90
41058;DHT22;27499;48.884;2.258;2022-07-23T10:10:07;22.80;99.90
41058;DHT22;27499;48.884;2.258;2022-07-23T10:12:35;23.00;99.90
41058;DHT22;27499;48.884;2.258;2022-07-23T10:15:18;23.00;99.90
41058;DHT22;27499;48.884;2.258;2022-07-23T10:17:45;23.10;99.90
41058;DHT22;27499;48.884;2.258;2022-07-23T10:20:12;23.10;99.90
41058;DHT22;27499;48.884;2.258;2022-07-23T10:25:55;23.10;99.90
41058;DHT22;27499;48.884;2.258;2022-07-23T10:28:40;23.10;99.90
41058;DHT22;27499;48.884;2.258;2022-07-23T10:34:44;23.10;99.90
41058;DHT22;27499;48.884;2.258;2022-07-23T10:37:30;23.10;99.90
41058;DHT22;27499;48.884;2.258;2022-07-23T10:42:39;23.10;99.90
41058;DHT22;27499;48.884;2.258;2022-07-23T10:47:55;23.20;99.90
41058;DHT22;27499;48.884;2.258;2022-07-23T10:50:28;23.20;99.90
41058;DHT22;27499;48.884;2.258;2022-07-23T10:55:41;23.30;99.90
41058;DHT22;27499;48.884;2.258;2022-07-23T10:58:08;23.30;99.90
41058;DHT22;27499;48.884;2.258;2022-07-23T11:00:37;23.30;99.90
41058;DHT22;27499;48.884;2.258;2022-07-23T11:03:32;23.30;99.90
41058;DHT22;27499;48.884;2.258;2022-07-23T11:05:59;23.30;99.90
41058;DHT22;27499;48.884;2.258;2022-07-23T11:08:26;23.30;99.90
41058;DHT22;27499;48.884;2.258;2022-07-23T11:26:42;23.30;99.90
41058;DHT22;27499;48.884;2.258;2022-07-23T11:34:48;23.30;99.90
41058;DHT22;27499;48.884;2.258;2022-07-23T11:39:58;23.30;99.90
41058;DHT22;27499;48.884;2.258;2022-07-23T11:42:25;23.30;99.90
41058;DHT22;27499;48.884;2.258;2022-07-23T11:44:57;23.30;99.90
41058;DHT22;27499;48.884;2.258;2022-07-23T11:47:26;23.30;99.90
41058;DHT22;27499;48.884;2.258;2022-07-23T11:49:58;23.30;99.90
41058;DHT22;27499;48.884;2.258;2022-07-23T11:52:26;23.40;99.90
41058;DHT22;27499;48.884;2.258;2022-07-23T11:54:56;23.40;99.90
41058;DHT22;27499;48.884;2.258;2022-07-23T11:57:32;23.40;99.90
41058;DHT22;27499;48.884;2.258;2022-07-23T12:00:09;23.50;99.90
41058;DHT22;27499;48.884;2.258;2022-07-23T12:02:39;23.50;99.90
41058;DHT22;27499;48.884;2.258;2022-07-23T12:05:07;23.50;99.90
41058;DHT22;27499;48.884;2.258;2022-07-23T12:07:38;23.50;99.90
41058;DHT22;27499;48.884;2.258;2022-07-23T12:10:14;23.50;99.90
41058;DHT22;27499;48.884;2.258;2022-07-23T12:12:42;23.50;99.90
41058;DHT22;27499;48.884;2.258;2022-07-23T12:15:12;23.60;99.90
41058;DHT22;27499;48.884;2.258;2022-07-23T12:17:41;23.50;99.90
41058;DHT22;27499;48.884;2.258;2022-07-23T12:20:16;23.60;99.90
41058;DHT22;27499;48.884;2.258;2022-07-23T12:22:45;23.60;99.90
41058;DHT22;27499;48.884;2.258;2022-07-23T12:25:15;23.60;99.90
41058;DHT22;27499;48.884;2.258;2022-07-23T12:27:43;23.60;99.90
41058;DHT22;27499;48.884;2.258;2022-07-23T12:32:45;23.70;99.90
41058;DHT22;27499;48.884;2.258;2022-07-23T12:35:13;23.70;99.90
41058;DHT22;27499;48.884;2.258;2022-07-23T12:37:45;23.70;99.90
41058;DHT22;27499;48.884;2.258;2022-07-23T12:40:23;23.70;99.90
41058;DHT22;27499;48.884;2.258;2022-07-23T12:42:57;23.80;99.90
41058;DHT22;27499;48.884;2.258;2022-07-23T12:45:24;23.80;99.90
41058;DHT22;27499;48.884;2.258;2022-07-23T12:48:02;23.90;99.90
41058;DHT22;27499;48.884;2.258;2022-07-23T12:50:52;23.90;99.90
41058;DHT22;27499;48.884;2.258;2022-07-23T12:53:21;23.90;99.90
41058;DHT22;27499;48.884;2.258;2022-07-23T12:55:58;23.90;99.90
41058;DHT22;27499;48.884;2.258;2022-07-23T13:01:39;24.00;99.90
41058;DHT22;27499;48.884;2.258;2022-07-23T13:04:12;24.00;99.90
41058;DHT22;27499;48.884;2.258;2022-07-23T13:06:52;24.00;99.90
41058;DHT22;27499;48.884;2.258;2022-07-23T13:11:48;24.00;99.90
41058;DHT22;27499;48.884;2.258;2022-07-23T13:14:17;24.00;99.90
41058;DHT22;27499;48.884;2.258;2022-07-23T13:16:48;24.00;99.90
41058;DHT22;27499;48.884;2.258;2022-07-23T13:19:16;24.00;99.90
41058;DHT22;27499;48.884;2.258;2022-07-23T13:21:45;24.00;99.90
41058;DHT22;27499;48.884;2.258;2022-07-23T13:24:12;24.00;99.90
41058;DHT22;27499;48.884;2.258;2022-07-23T13:26:40;24.00;99.90
41058;DHT22;27499;48.884;2.258;2022-07-23T13:29:08;24.00;99.90
41058;DHT22;27499;48.884;2.258;2022-07-23T13:31:37;24.00;99.90
41058;DHT22;27499;48.884;2.258;2022-07-23T13:34:05;24.00;99.90
41058;DHT22;27499;48.884;2.258;2022-07-23T13:36:34;24.00;99.90
41058;DHT22;27499;48.884;2.258;2022-07-23T13:39:02;24.00;99.90
41058;DHT22;27499;48.884;2.258;2022-07-23T13:41:30;23.90;99.90
41058;DHT22;27499;48.884;2.258;2022-07-23T13:43:57;24.00;99.90
41058;DHT22;27499;48.884;2.258;2022-07-23T13:46:24;24.00;99.90
41058;DHT22;27499;48.884;2.258;2022-07-23T13:48:52;24.00;99.90
41058;DHT22;27499;48.884;2.258;2022-07-23T13:51:19;24.00;99.90
41058;DHT22;27499;48.884;2.258;2022-07-23T13:53:50;24.00;99.90
41058;DHT22;27499;48.884;2.258;2022-07-23T13:56:17;24.00;99.90
41058;DHT22;27499;48.884;2.258;2022-07-23T13:58:44;24.00;99.90
41058;DHT22;27499;48.884;2.258;2022-07-23T14:01:11;24.00;99.90
41058;DHT22;27499;48.884;2.258;2022-07-23T14:03:38;24.00;99.90
41058;DHT22;27499;48.884;2.258;2022-07-23T14:06:06;24.00;99.90
41058;DHT22;27499;48.884;2.258;2022-07-23T14:08:41;24.00;99.90
41058;DHT22;27499;48.884;2.258;2022-07-23T14:11:10;24.00;99.90
41058;DHT22;27499;48.884;2.258;2022-07-23T14:13:37;24.00;99.90
41058;DHT22;27499;48.884;2.258;2022-07-23T14:16:04;24.00;99.90
41058;DHT22;27499;48.884;2.258;2022-07-23T14:18:31;24.00;99.90
41058;DHT22;27499;48.884;2.258;2022-07-23T14:20:59;24.00;99.90
41058;DHT22;27499;48.884;2.258;2022-07-23T14:23:27;24.00;99.90
41058;DHT22;27499;48.884;2.258;2022-07-23T14:25:56;24.00;99.90
41058;DHT22;27499;48.884;2.258;2022-07-23T14:28:23;24.00;99.90
41058;DHT22;27499;48.884;2.258;2022-07-23T14:30:50;24.00;99.90
41058;DHT22;27499;48.884;2.258;2022-07-23T14:33:17;24.00;99.90
41058;DHT22;27499;48.884;2.258;2022-07-23T14:35:45;24.00;99.90
41058;DHT22;27499;48.884;2.258;2022-07-23T14:38:12;24.10;99.90
41058;DHT22;27499;48.884;2.258;2022-07-23T14:40:40;24.10;99.90
41058;DHT22;27499;48.884;2.258;2022-07-23T14:43:08;24.10;99.90
41058;DHT22;27499;48.884;2.258;2022-07-23T14:45:38;24.10;99.90
41058;DHT22;27499;48.884;2.258;2022-07-23T14:48:05;24.10;99.90
41058;DHT22;27499;48.884;2.258;2022-07-23T14:50:32;24.10;99.90
41058;DHT22;27499;48.884;2.258;2022-07-23T14:53:00;24.10;99.90
41058;DHT22;27499;48.884;2.258;2022-07-23T14:55:27;24.10;99.90
41058;DHT22;27499;48.884;2.258;2022-07-23T14:57:54;24.20;99.90
41058;DHT22;27499;48.884;2.258;2022-07-23T15:00:21;24.20;99.90
41058;DHT22;27499;48.884;2.258;2022-07-23T15:02:50;24.20;99.90
41058;DHT22;27499;48.884;2.258;2022-07-23T15:05:21;24.20;99.90
41058;DHT22;27499;48.884;2.258;2022-07-23T15:07:48;24.20;99.90
41058;DHT22;27499;48.884;2.258;2022-07-23T15:10:16;24.20;99.90
41058;DHT22;27499;48.884;2.258;2022-07-23T15:12:48;24.20;99.90
41058;DHT22;27499;48.884;2.258;2022-07-23T15:15:15;24.20;99.90
41058;DHT22;27499;48.884;2.258;2022-07-23T15:17:43;24.20;99.90
41058;DHT22;27499;48.884;2.258;2022-07-23T15:20:10;24.20;99.90
41058;DHT22;27499;48.884;2.258;2022-07-23T15:22:41;24.20;99.90
41058;DHT22;27499;48.884;2.258;2022-07-23T15:25:08;24.30;99.90
41058;DHT22;27499;48.884;2.258;2022-07-23T15:27:38;24.30;99.90
41058;DHT22;27499;48.884;2.258;2022-07-23T15:30:05;24.30;99.90
41058;DHT22;27499;48.884;2.258;2022-07-23T15:32:34;24.30;99.90
41058;DHT22;27499;48.884;2.258;2022-07-23T15:35:01;24.30;99.90
41058;DHT22;27499;48.884;2.258;2022-07-23T15:37:31;24.30;99.90
41058;DHT22;27499;48.884;2.258;2022-07-23T15:40:00;24.20;99.90
41058;DHT22;27499;48.884;2.258;2022-07-23T15:42:28;24.30;99.90
41058;DHT22;27499;48.884;2.258;2022-07-23T15:44:55;24.30;99.90
41058;DHT22;27499;48.884;2.258;2022-07-23T15:47:22;24.30;99.90
41058;DHT22;27499;48.884;2.258;2022-07-23T15:49:51;24.30;99.90
41058;DHT22;27499;48.884;2.258;2022-07-23T15:52:18;24.30;99.90
41058;DHT22;27499;48.884;2.258;2022-07-23T15:54:47;24.20;99.90
41058;DHT22;27499;48.884;2.258;2022-07-23T15:57:14;24.20;99.90
41058;DHT22;27499;48.884;2.258;2022-07-23T15:59:41;24.20;99.90
41058;DHT22;27499;48.884;2.258;2022-07-23T16:02:08;24.20;99.90
41058;DHT22;27499;48.884;2.258;2022-07-23T16:04:35;24.20;99.90
41058;DHT22;27499;48.884;2.258;2022-07-23T16:07:02;24.20;99.90
41058;DHT22;27499;48.884;2.258;2022-07-23T16:09:30;24.20;99.90
41058;DHT22;27499;48.884;2.258;2022-07-23T16:11:57;24.20;99.90
41058;DHT22;27499;48.884;2.258;2022-07-23T16:14:24;24.20;99.90
41058;DHT22;27499;48.884;2.258;2022-07-23T16:16:51;24.20;99.90
41058;DHT22;27499;48.884;2.258;2022-07-23T16:19:18;24.20;99.90
41058;DHT22;27499;48.884;2.258;2022-07-23T16:21:45;24.20;99.90
41058;DHT22;27499;48.884;2.258;2022-07-23T16:24:12;24.20;99.90
41058;DHT22;27499;48.884;2.258;2022-07-23T16:26:39;24.20;99.90
41058;DHT22;27499;48.884;2.258;2022-07-23T16:29:06;24.20;99.90
41058;DHT22;27499;48.884;2.258;2022-07-23T16:31:45;24.20;99.90
41058;DHT22;27499;48.884;2.258;2022-07-23T16:34:12;24.20;99.90
41058;DHT22;27499;48.884;2.258;2022-07-23T16:36:39;24.20;99.90
41058;DHT22;27499;48.884;2.258;2022-07-23T16:39:06;24.20;99.90